sensor_id;sensor_type;location;lat;lon;timestamp;pressure;altitude;pressure_sealevel;temperature;humidity
17025;BME280;8629;42.496;25.620;2024-03-22T00:01:22;96553.63;;;5.95;57.86
17025;BME280;8629;42.496;25.620;2024-03-22T00:03:49;96555.34;;;5.74;58.34
17025;BME280;8629;42.496;25.620;2024-03-22T00:06:16;96557.31;;;5.94;58.06
17025;BME280;8629;42.496;25.620;2024-03-22T00:08:42;96555.16;;;5.91;57.59
17025;BME280;8629;42.496;25.620;2024-03-22T00:11:11;96539.91;;;5.98;57.31
17025;BME280;8629;42.496;25.620;2024-03-22T00:13:46;96550.53;;;6.13;56.13
17025;BME280;8629;42.496;25.620;2024-03-22T00:16:17;96552.88;;;6.05;56.34
17025;BME280;8629;42.496;25.620;2024-03-22T00:18:49;96545.19;;;6.03;56.04
17025;BME280;8629;42.496;25.620;2024-03-22T00:21:32;96544.44;;;6.08;56.37
17025;BME280;8629;42.496;25.620;2024-03-22T00:24:03;96549.91;;;5.96;55.96
17025;BME280;8629;42.496;25.620;2024-03-22T00:26:32;96549.38;;;5.94;56.05
17025;BME280;8629;42.496;25.620;2024-03-22T00:29:00;96538.28;;;5.92;56.07
17025;BME280;8629;42.496;25.620;2024-03-22T00:31:32;96526.59;;;5.83;56.24
17025;BME280;8629;42.496;25.620;2024-03-22T00:34:12;96555.63;;;5.83;56.39
17025;BME280;8629;42.496;25.620;2024-03-22T00:36:40;96537.34;;;5.66;56.34
17025;BME280;8629;42.496;25.620;2024-03-22T00:39:09;96555.56;;;5.73;55.73
17025;BME280;8629;42.496;25.620;2024-03-22T00:41:35;96546.56;;;5.63;56.04
17025;BME280;8629;42.496;25.620;2024-03-22T00:44:07;96548.88;;;5.55;55.92
17025;BME280;8629;42.496;25.620;2024-03-22T00:46:45;96549.97;;;5.64;56.16
17025;BME280;8629;42.496;25.620;2024-03-22T00:49:29;96555.13;;;5.86;55.01
17025;BME280;8629;42.496;25.620;2024-03-22T00:52:05;96553.41;;;5.64;55.22
17025;BME280;8629;42.496;25.620;2024-03-22T00:54:37;96552.72;;;5.79;54.82
17025;BME280;8629;42.496;25.620;2024-03-22T00:57:16;96552.31;;;5.55;55.18
17025;BME280;8629;42.496;25.620;2024-03-22T00:59:49;96547.38;;;5.69;55.05
17025;BME280;8629;42.496;25.620;2024-03-22T01:02:19;96530.09;;;5.46;54.80
17025;BME280;8629;42.496;25.620;2024-03-22T01:04:58;96545.69;;;5.15;55.29
17025;BME280;8629;42.496;25.620;2024-03-22T01:07:28;96508.88;;;4.99;55.09
17025;BME280;8629;42.496;25.620;2024-03-22T01:10:05;96562.47;;;5.36;55.25
17025;BME280;8629;42.496;25.620;2024-03-22T01:12:51;96547.91;;;5.29;55.39
17025;BME280;8629;42.496;25.620;2024-03-22T01:15:19;96543.47;;;5.34;54.95
17025;BME280;8629;42.496;25.620;2024-03-22T01:17:47;96539.81;;;5.46;54.41
17025;BME280;8629;42.496;25.620;2024-03-22T01:20:39;96539.88;;;5.13;54.94
17025;BME280;8629;42.496;25.620;2024-03-22T01:23:13;96538.38;;;5.23;55.84
17025;BME280;8629;42.496;25.620;2024-03-22T01:25:48;96545.09;;;5.40;54.74
17025;BME280;8629;42.496;25.620;2024-03-22T01:28:16;96524.22;;;5.39;55.01
17025;BME280;8629;42.496;25.620;2024-03-22T01:30:47;96532.69;;;5.41;54.14
17025;BME280;8629;42.496;25.620;2024-03-22T01:33:20;96536.38;;;5.40;55.01
17025;BME280;8629;42.496;25.620;2024-03-22T01:36:12;96539.38;;;5.17;54.88
17025;BME280;8629;42.496;25.620;2024-03-22T01:38:41;96517.88;;;5.03;54.69
17025;BME280;8629;42.496;25.620;2024-03-22T01:41:11;96546.50;;;5.16;55.07
17025;BME280;8629;42.496;25.620;2024-03-22T01:43:39;96539.09;;;5.18;54.63
17025;BME280;8629;42.496;25.620;2024-03-22T01:46:16;96534.69;;;5.24;53.83
17025;BME280;8629;42.496;25.620;2024-03-22T01:48:45;96542.09;;;5.27;53.78
17025;BME280;8629;42.496;25.620;2024-03-22T01:51:19;96539.66;;;5.20;53.73
17025;BME280;8629;42.496;25.620;2024-03-22T01:53:48;96512.97;;;5.11;54.15
17025;BME280;8629;42.496;25.620;2024-03-22T01:56:23;96527.75;;;5.18;54.21
17025;BME280;8629;42.496;25.620;2024-03-22T01:58:54;96550.38;;;5.08;54.44
17025;BME280;8629;42.496;25.620;2024-03-22T02:01:38;96463.19;;;4.56;53.95
17025;BME280;8629;42.496;25.620;2024-03-22T02:04:13;96542.47;;;5.08;53.86
17025;BME280;8629;42.496;25.620;2024-03-22T02:06:55;96535.03;;;5.00;54.43
17025;BME280;8629;42.496;25.620;2024-03-22T02:09:53;96542.16;;;5.00;53.66
17025;BME280;8629;42.496;25.620;2024-03-22T02:13:00;96536.97;;;4.83;54.16
17025;BME280;8629;42.496;25.620;2024-03-22T02:15:33;96543.63;;;4.90;53.92
17025;BME280;8629;42.496;25.620;2024-03-22T02:18:07;96538.66;;;4.94;54.45
17025;BME280;8629;42.496;25.620;2024-03-22T02:20:41;96531.19;;;4.86;54.31
17025;BME280;8629;42.496;25.620;2024-03-22T02:23:13;96548.00;;;4.80;53.98
17025;BME280;8629;42.496;25.620;2024-03-22T02:29:11;96541.66;;;4.76;55.05
17025;BME280;8629;42.496;25.620;2024-03-22T02:31:50;96543.84;;;4.57;55.13
17025;BME280;8629;42.496;25.620;2024-03-22T02:34:18;96550.31;;;4.44;55.80
17025;BME280;8629;42.496;25.620;2024-03-22T02:39:50;96518.06;;;4.37;55.13
17025;BME280;8629;42.496;25.620;2024-03-22T02:42:37;96526.88;;;4.21;55.97
17025;BME280;8629;42.496;25.620;2024-03-22T02:45:16;96535.13;;;4.29;55.97
17025;BME280;8629;42.496;25.620;2024-03-22T02:47:57;96538.84;;;4.33;55.82
17025;BME280;8629;42.496;25.620;2024-03-22T02:50:27;96527.47;;;4.28;55.78
17025;BME280;8629;42.496;25.620;2024-03-22T02:52:58;96533.88;;;4.37;55.27
17025;BME280;8629;42.496;25.620;2024-03-22T02:55:47;96539.84;;;4.27;55.36
17025;BME280;8629;42.496;25.620;2024-03-22T02:58:27;96536.44;;;4.27;56.01
17025;BME280;8629;42.496;25.620;2024-03-22T03:01:20;96528.13;;;4.18;55.59
17025;BME280;8629;42.496;25.620;2024-03-22T03:03:56;96511.88;;;3.99;55.61
17025;BME280;8629;42.496;25.620;2024-03-22T03:06:26;96537.09;;;4.17;56.00
17025;BME280;8629;42.496;25.620;2024-03-22T03:09:03;96528.03;;;4.08;55.63
17025;BME280;8629;42.496;25.620;2024-03-22T03:12:12;96538.53;;;4.03;55.29
17025;BME280;8629;42.496;25.620;2024-03-22T03:15:04;96523.22;;;4.00;55.02
17025;BME280;8629;42.496;25.620;2024-03-22T03:17:41;96527.91;;;3.98;55.14
17025;BME280;8629;42.496;25.620;2024-03-22T03:20:13;96545.59;;;4.02;55.20
17025;BME280;8629;42.496;25.620;2024-03-22T03:23:02;96560.75;;;4.12;54.13
17025;BME280;8629;42.496;25.620;2024-03-22T03:25:47;96557.72;;;4.25;54.35
17025;BME280;8629;42.496;25.620;2024-03-22T03:28:20;96555.22;;;4.13;53.91
17025;BME280;8629;42.496;25.620;2024-03-22T03:30:57;96540.22;;;3.92;54.53
17025;BME280;8629;42.496;25.620;2024-03-22T03:36:34;96573.47;;;3.76;55.32
17025;BME280;8629;42.496;25.620;2024-03-22T03:39:23;96579.53;;;3.60;55.59
17025;BME280;8629;42.496;25.620;2024-03-22T03:41:59;96591.44;;;3.46;55.98
17025;BME280;8629;42.496;25.620;2024-03-22T03:44:48;96601.63;;;3.08;58.20
17025;BME280;8629;42.496;25.620;2024-03-22T03:47:22;96547.91;;;3.04;57.46
17025;BME280;8629;42.496;25.620;2024-03-22T04:02:53;96608.69;;;3.92;56.76
17025;BME280;8629;42.496;25.620;2024-03-22T04:05:56;96610.63;;;3.63;57.39
17025;BME280;8629;42.496;25.620;2024-03-22T04:08:26;96609.03;;;3.62;57.16
17025;BME280;8629;42.496;25.620;2024-03-22T04:11:02;96590.88;;;3.60;57.18
17025;BME280;8629;42.496;25.620;2024-03-22T04:13:41;96599.88;;;3.64;56.49
17025;BME280;8629;42.496;25.620;2024-03-22T04:16:18;96613.84;;;3.65;57.09
17025;BME280;8629;42.496;25.620;2024-03-22T04:19:03;96629.78;;;3.58;57.67
17025;BME280;8629;42.496;25.620;2024-03-22T04:21:32;96618.22;;;3.76;57.45
17025;BME280;8629;42.496;25.620;2024-03-22T04:24:13;96637.09;;;3.90;57.22
17025;BME280;8629;42.496;25.620;2024-03-22T04:26:50;96635.44;;;3.67;57.88
17025;BME280;8629;42.496;25.620;2024-03-22T04:29:23;96648.19;;;3.75;56.73
17025;BME280;8629;42.496;25.620;2024-03-22T04:31:54;96637.75;;;3.63;57.41
17025;BME280;8629;42.496;25.620;2024-03-22T04:34:35;96646.28;;;3.71;57.10
17025;BME280;8629;42.496;25.620;2024-03-22T04:37:14;96637.28;;;3.66;57.27
17025;BME280;8629;42.496;25.620;2024-03-22T04:40:28;96656.25;;;3.68;55.87
17025;BME280;8629;42.496;25.620;2024-03-22T04:46:10;96662.94;;;3.59;56.69
17025;BME280;8629;42.496;25.620;2024-03-22T04:48:49;96673.25;;;3.78;57.07
17025;BME280;8629;42.496;25.620;2024-03-22T04:51:46;96665.13;;;3.46;56.54
17025;BME280;8629;42.496;25.620;2024-03-22T04:54:24;96680.56;;;3.42;56.52
17025;BME280;8629;42.496;25.620;2024-03-22T04:56:52;96674.66;;;3.35;56.34
17025;BME280;8629;42.496;25.620;2024-03-22T04:59:25;96667.38;;;3.25;56.96
17025;BME280;8629;42.496;25.620;2024-03-22T05:01:52;96667.03;;;3.33;56.45
17025;BME280;8629;42.496;25.620;2024-03-22T05:04:58;96677.22;;;3.63;54.87
17025;BME280;8629;42.496;25.620;2024-03-22T05:11:08;96680.81;;;3.74;53.81
17025;BME280;8629;42.496;25.620;2024-03-22T05:13:38;96601.72;;;3.30;52.40
17025;BME280;8629;42.496;25.620;2024-03-22T05:16:08;96673.88;;;3.85;51.62
17025;BME280;8629;42.496;25.620;2024-03-22T05:18:40;96679.94;;;3.85;51.40
17025;BME280;8629;42.496;25.620;2024-03-22T05:21:18;96685.59;;;3.94;51.21
17025;BME280;8629;42.496;25.620;2024-03-22T05:24:18;96686.38;;;4.11;50.22
17025;BME280;8629;42.496;25.620;2024-03-22T05:30:57;96667.28;;;4.21;49.52
17025;BME280;8629;42.496;25.620;2024-03-22T05:37:48;96670.38;;;4.35;48.88
17025;BME280;8629;42.496;25.620;2024-03-22T05:43:26;96694.28;;;4.50;48.32
17025;BME280;8629;42.496;25.620;2024-03-22T05:46:10;96683.34;;;4.63;49.23
17025;BME280;8629;42.496;25.620;2024-03-22T05:49:12;96694.78;;;4.69;48.22
17025;BME280;8629;42.496;25.620;2024-03-22T05:51:45;96698.56;;;4.56;47.53
17025;BME280;8629;42.496;25.620;2024-03-22T05:54:39;96710.03;;;4.89;47.55
17025;BME280;8629;42.496;25.620;2024-03-22T05:57:10;96701.88;;;4.90;47.28
17025;BME280;8629;42.496;25.620;2024-03-22T05:59:40;96723.88;;;5.01;47.12
17025;BME280;8629;42.496;25.620;2024-03-22T06:02:08;96732.03;;;5.22;47.45
17025;BME280;8629;42.496;25.620;2024-03-22T06:04:39;96681.94;;;5.00;46.56
17025;BME280;8629;42.496;25.620;2024-03-22T06:07:11;96726.72;;;4.95;47.22
17025;BME280;8629;42.496;25.620;2024-03-22T06:09:40;96697.63;;;5.11;47.78
17025;BME280;8629;42.496;25.620;2024-03-22T06:12:21;96738.91;;;5.50;46.47
17025;BME280;8629;42.496;25.620;2024-03-22T06:15:02;96728.25;;;5.67;45.61
17025;BME280;8629;42.496;25.620;2024-03-22T06:17:42;96698.59;;;5.59;45.58
17025;BME280;8629;42.496;25.620;2024-03-22T06:20:23;96718.22;;;5.69;44.89
17025;BME280;8629;42.496;25.620;2024-03-22T06:22:59;96736.75;;;5.74;45.45
17025;BME280;8629;42.496;25.620;2024-03-22T06:25:55;96740.38;;;5.68;45.67
17025;BME280;8629;42.496;25.620;2024-03-22T06:31:31;96747.81;;;5.71;44.96
17025;BME280;8629;42.496;25.620;2024-03-22T06:34:00;96690.75;;;5.37;44.84
17025;BME280;8629;42.496;25.620;2024-03-22T06:36:42;96716.53;;;5.57;44.56
17025;BME280;8629;42.496;25.620;2024-03-22T06:39:23;96722.50;;;5.75;43.81
17025;BME280;8629;42.496;25.620;2024-03-22T06:42:09;96713.47;;;5.98;44.07
17025;BME280;8629;42.496;25.620;2024-03-22T06:44:40;96730.19;;;6.08;42.90
17025;BME280;8629;42.496;25.620;2024-03-22T06:50:13;96693.31;;;6.24;41.67
17025;BME280;8629;42.496;25.620;2024-03-22T06:52:39;96717.50;;;6.53;41.65
17025;BME280;8629;42.496;25.620;2024-03-22T06:55:06;96724.25;;;6.81;40.92
17025;BME280;8629;42.496;25.620;2024-03-22T06:57:32;96729.88;;;6.90;40.79
17025;BME280;8629;42.496;25.620;2024-03-22T07:00:00;96728.06;;;7.05;39.88
17025;BME280;8629;42.496;25.620;2024-03-22T07:02:29;96738.66;;;7.05;38.61
17025;BME280;8629;42.496;25.620;2024-03-22T07:05:01;96734.47;;;7.25;39.02
17025;BME280;8629;42.496;25.620;2024-03-22T07:07:29;96736.09;;;7.46;38.89
17025;BME280;8629;42.496;25.620;2024-03-22T07:10:10;96717.03;;;7.49;38.09
17025;BME280;8629;42.496;25.620;2024-03-22T07:12:36;96749.66;;;7.80;37.80
17025;BME280;8629;42.496;25.620;2024-03-22T07:15:06;96733.22;;;8.24;37.61
17025;BME280;8629;42.496;25.620;2024-03-22T07:17:33;96741.19;;;8.29;36.12
17025;BME280;8629;42.496;25.620;2024-03-22T07:19:59;96733.50;;;7.97;35.81
17025;BME280;8629;42.496;25.620;2024-03-22T07:22:32;96700.84;;;7.35;37.39
17025;BME280;8629;42.496;25.620;2024-03-22T07:24:58;96723.72;;;8.13;35.70
17025;BME280;8629;42.496;25.620;2024-03-22T07:27:24;96731.38;;;8.45;35.87
17025;BME280;8629;42.496;25.620;2024-03-22T07:29:54;96740.94;;;8.41;35.69
17025;BME280;8629;42.496;25.620;2024-03-22T07:32:21;96718.63;;;8.32;35.96
17025;BME280;8629;42.496;25.620;2024-03-22T07:34:47;96730.13;;;9.07;35.36
17025;BME280;8629;42.496;25.620;2024-03-22T07:37:14;96726.72;;;8.97;35.10
17025;BME280;8629;42.496;25.620;2024-03-22T07:39:42;96737.44;;;9.31;34.51
17025;BME280;8629;42.496;25.620;2024-03-22T07:42:09;96738.69;;;9.49;33.23
17025;BME280;8629;42.496;25.620;2024-03-22T07:44:34;96732.25;;;9.05;32.55
17025;BME280;8629;42.496;25.620;2024-03-22T07:47:01;96731.56;;;9.39;34.19
17025;BME280;8629;42.496;25.620;2024-03-22T07:49:27;96732.59;;;10.17;32.89
17025;BME280;8629;42.496;25.620;2024-03-22T07:51:54;96743.03;;;10.08;32.00
17025;BME280;8629;42.496;25.620;2024-03-22T07:54:19;96732.13;;;10.10;31.81
17025;BME280;8629;42.496;25.620;2024-03-22T07:56:48;96700.69;;;10.17;31.51
17025;BME280;8629;42.496;25.620;2024-03-22T07:59:14;96737.91;;;10.17;32.50
17025;BME280;8629;42.496;25.620;2024-03-22T08:01:42;96696.63;;;9.95;30.99
17025;BME280;8629;42.496;25.620;2024-03-22T08:04:07;96741.34;;;10.51;30.93
17025;BME280;8629;42.496;25.620;2024-03-22T08:06:34;96740.50;;;10.56;31.52
17025;BME280;8629;42.496;25.620;2024-03-22T08:09:00;96733.44;;;10.70;31.10
17025;BME280;8629;42.496;25.620;2024-03-22T08:11:28;96731.63;;;10.66;30.08
17025;BME280;8629;42.496;25.620;2024-03-22T08:13:55;96721.34;;;11.02;27.77
17025;BME280;8629;42.496;25.620;2024-03-22T08:16:27;96682.84;;;10.94;27.69
17025;BME280;8629;42.496;25.620;2024-03-22T08:18:53;96712.31;;;11.22;28.25
17025;BME280;8629;42.496;25.620;2024-03-22T08:21:20;96734.44;;;11.79;26.48
17025;BME280;8629;42.496;25.620;2024-03-22T08:23:46;96728.47;;;11.87;26.24
17025;BME280;8629;42.496;25.620;2024-03-22T08:26:12;96706.94;;;11.27;26.45
17025;BME280;8629;42.496;25.620;2024-03-22T08:28:38;96732.91;;;11.73;27.26
17025;BME280;8629;42.496;25.620;2024-03-22T08:31:06;96739.16;;;11.87;27.43
17025;BME280;8629;42.496;25.620;2024-03-22T08:33:32;96704.53;;;11.82;27.06
17025;BME280;8629;42.496;25.620;2024-03-22T08:35:59;96741.44;;;11.94;25.34
17025;BME280;8629;42.496;25.620;2024-03-22T08:38:26;96741.38;;;11.99;24.53
17025;BME280;8629;42.496;25.620;2024-03-22T08:40:53;96726.84;;;12.38;25.13
17025;BME280;8629;42.496;25.620;2024-03-22T08:43:19;96740.00;;;12.34;26.02
17025;BME280;8629;42.496;25.620;2024-03-22T08:45:48;96742.31;;;12.55;24.44
17025;BME280;8629;42.496;25.620;2024-03-22T08:48:15;96731.13;;;13.35;23.78
17025;BME280;8629;42.496;25.620;2024-03-22T08:50:43;96703.34;;;13.09;24.73
17025;BME280;8629;42.496;25.620;2024-03-22T08:53:09;96732.78;;;13.59;24.87
17025;BME280;8629;42.496;25.620;2024-03-22T08:55:36;96728.50;;;13.94;23.95
17025;BME280;8629;42.496;25.620;2024-03-22T08:58:02;96736.34;;;13.90;23.50
17025;BME280;8629;42.496;25.620;2024-03-22T09:00:29;96735.13;;;13.97;23.21
17025;BME280;8629;42.496;25.620;2024-03-22T09:02:55;96724.19;;;14.07;23.81
17025;BME280;8629;42.496;25.620;2024-03-22T09:05:23;96732.06;;;14.57;22.24
17025;BME280;8629;42.496;25.620;2024-03-22T09:07:49;96712.75;;;13.92;22.61
17025;BME280;8629;42.496;25.620;2024-03-22T09:10:18;96712.09;;;15.11;20.18
17025;BME280;8629;42.496;25.620;2024-03-22T09:12:44;96740.25;;;14.07;22.15
17025;BME280;8629;42.496;25.620;2024-03-22T09:15:11;96699.63;;;13.82;21.47
17025;BME280;8629;42.496;25.620;2024-03-22T09:17:36;96706.59;;;14.14;20.98
17025;BME280;8629;42.496;25.620;2024-03-22T09:20:05;96699.72;;;14.22;21.29
17025;BME280;8629;42.496;25.620;2024-03-22T09:22:32;96729.88;;;14.99;19.87
17025;BME280;8629;42.496;25.620;2024-03-22T09:24:59;96726.94;;;14.47;20.36
17025;BME280;8629;42.496;25.620;2024-03-22T09:27:25;96719.09;;;15.30;20.37
17025;BME280;8629;42.496;25.620;2024-03-22T09:29:52;96714.88;;;14.89;21.66
17025;BME280;8629;42.496;25.620;2024-03-22T09:32:18;96689.56;;;14.64;19.62
17025;BME280;8629;42.496;25.620;2024-03-22T09:34:45;96730.44;;;15.27;20.17
17025;BME280;8629;42.496;25.620;2024-03-22T09:37:10;96723.88;;;15.94;18.04
17025;BME280;8629;42.496;25.620;2024-03-22T09:39:39;96719.53;;;15.14;19.54
17025;BME280;8629;42.496;25.620;2024-03-22T09:42:06;96713.50;;;14.60;20.27
17025;BME280;8629;42.496;25.620;2024-03-22T09:44:33;96729.41;;;14.12;21.30
17025;BME280;8629;42.496;25.620;2024-03-22T09:47:00;96678.09;;;14.41;20.59
17025;BME280;8629;42.496;25.620;2024-03-22T09:49:31;96717.13;;;15.04;19.63
17025;BME280;8629;42.496;25.620;2024-03-22T09:51:57;96723.34;;;15.31;19.01
17025;BME280;8629;42.496;25.620;2024-03-22T09:54:25;96676.78;;;14.61;19.94
17025;BME280;8629;42.496;25.620;2024-03-22T09:56:52;96706.47;;;15.30;19.01
17025;BME280;8629;42.496;25.620;2024-03-22T09:59:20;96723.59;;;16.59;18.90
17025;BME280;8629;42.496;25.620;2024-03-22T10:01:47;96699.72;;;15.68;20.42
17025;BME280;8629;42.496;25.620;2024-03-22T10:04:14;96688.16;;;16.10;20.14
17025;BME280;8629;42.496;25.620;2024-03-22T10:06:40;96694.28;;;15.33;20.53
17025;BME280;8629;42.496;25.620;2024-03-22T10:09:07;96694.34;;;15.94;19.33
17025;BME280;8629;42.496;25.620;2024-03-22T10:11:34;96660.22;;;15.16;20.48
17025;BME280;8629;42.496;25.620;2024-03-22T10:14:03;96698.09;;;16.10;19.43
17025;BME280;8629;42.496;25.620;2024-03-22T10:16:33;96695.59;;;16.05;17.95
17025;BME280;8629;42.496;25.620;2024-03-22T10:19:00;96691.41;;;15.03;19.40
17025;BME280;8629;42.496;25.620;2024-03-22T10:21:26;96696.50;;;14.65;20.81
17025;BME280;8629;42.496;25.620;2024-03-22T10:23:54;96650.00;;;14.70;20.88
17025;BME280;8629;42.496;25.620;2024-03-22T10:26:20;96624.13;;;15.65;18.29
17025;BME280;8629;42.496;25.620;2024-03-22T10:28:47;96655.63;;;16.59;17.62
17025;BME280;8629;42.496;25.620;2024-03-22T10:31:14;96684.44;;;17.18;17.01
17025;BME280;8629;42.496;25.620;2024-03-22T10:33:41;96685.44;;;17.13;17.38
17025;BME280;8629;42.496;25.620;2024-03-22T10:36:10;96681.16;;;16.82;16.99
17025;BME280;8629;42.496;25.620;2024-03-22T10:38:39;96677.44;;;16.96;17.54
17025;BME280;8629;42.496;25.620;2024-03-22T10:41:05;96677.41;;;16.75;17.71
17025;BME280;8629;42.496;25.620;2024-03-22T10:43:31;96641.94;;;16.43;16.66
17025;BME280;8629;42.496;25.620;2024-03-22T10:46:01;96661.50;;;16.91;17.76
17025;BME280;8629;42.496;25.620;2024-03-22T10:48:33;96643.00;;;16.04;18.09
17025;BME280;8629;42.496;25.620;2024-03-22T10:51:00;96664.91;;;16.14;19.32
17025;BME280;8629;42.496;25.620;2024-03-22T10:53:30;96663.88;;;16.45;18.67
17025;BME280;8629;42.496;25.620;2024-03-22T10:55:57;96612.81;;;16.16;18.68
17025;BME280;8629;42.496;25.620;2024-03-22T10:58:26;96641.06;;;16.60;18.26
17025;BME280;8629;42.496;25.620;2024-03-22T11:00:52;96640.75;;;16.14;20.84
17025;BME280;8629;42.496;25.620;2024-03-22T11:03:20;96635.19;;;16.75;18.95
17025;BME280;8629;42.496;25.620;2024-03-22T11:05:48;96627.84;;;17.35;17.47
17025;BME280;8629;42.496;25.620;2024-03-22T11:08:23;96644.34;;;16.74;18.47
17025;BME280;8629;42.496;25.620;2024-03-22T11:10:49;96601.22;;;16.32;18.75
17025;BME280;8629;42.496;25.620;2024-03-22T11:13:17;96636.88;;;16.42;18.96
17025;BME280;8629;42.496;25.620;2024-03-22T11:15:43;96569.78;;;16.62;18.17
17025;BME280;8629;42.496;25.620;2024-03-22T11:18:10;96630.06;;;16.44;18.47
17025;BME280;8629;42.496;25.620;2024-03-22T11:20:36;96625.84;;;15.70;19.03
17025;BME280;8629;42.496;25.620;2024-03-22T11:23:05;96631.06;;;16.78;17.87
17025;BME280;8629;42.496;25.620;2024-03-22T11:25:31;96618.25;;;16.75;18.55
17025;BME280;8629;42.496;25.620;2024-03-22T11:27:58;96591.03;;;16.47;19.33
17025;BME280;8629;42.496;25.620;2024-03-22T11:30:26;96609.06;;;15.90;19.51
17025;BME280;8629;42.496;25.620;2024-03-22T11:32:53;96617.94;;;15.56;20.21
17025;BME280;8629;42.496;25.620;2024-03-22T11:35:19;96611.50;;;16.60;18.14
17025;BME280;8629;42.496;25.620;2024-03-22T11:37:46;96601.69;;;16.26;19.60
17025;BME280;8629;42.496;25.620;2024-03-22T11:40:13;96556.69;;;15.84;19.07
17025;BME280;8629;42.496;25.620;2024-03-22T11:42:42;96604.38;;;16.34;18.22
17025;BME280;8629;42.496;25.620;2024-03-22T11:45:11;96590.25;;;16.46;19.03
17025;BME280;8629;42.496;25.620;2024-03-22T11:47:38;96604.09;;;16.27;19.70
17025;BME280;8629;42.496;25.620;2024-03-22T11:50:05;96603.81;;;16.11;20.18
17025;BME280;8629;42.496;25.620;2024-03-22T11:52:32;96601.50;;;15.93;20.32
17025;BME280;8629;42.496;25.620;2024-03-22T11:54:57;96598.28;;;16.55;19.25
17025;BME280;8629;42.496;25.620;2024-03-22T11:57:26;96589.72;;;16.61;18.60
17025;BME280;8629;42.496;25.620;2024-03-22T11:59:52;96588.75;;;16.28;19.51
17025;BME280;8629;42.496;25.620;2024-03-22T12:02:19;96590.22;;;16.17;20.30
17025;BME280;8629;42.496;25.620;2024-03-22T12:04:46;96595.59;;;16.55;20.03
17025;BME280;8629;42.496;25.620;2024-03-22T12:07:14;96569.84;;;14.99;20.06
17025;BME280;8629;42.496;25.620;2024-03-22T12:09:41;96591.19;;;16.12;20.26
17025;BME280;8629;42.496;25.620;2024-03-22T12:12:09;96581.91;;;16.77;20.02
17025;BME280;8629;42.496;25.620;2024-03-22T12:14:37;96554.63;;;16.58;19.08
17025;BME280;8629;42.496;25.620;2024-03-22T12:17:04;96552.28;;;16.18;19.73
17025;BME280;8629;42.496;25.620;2024-03-22T12:19:30;96566.56;;;16.78;19.56
17025;BME280;8629;42.496;25.620;2024-03-22T12:21:57;96568.97;;;16.92;20.40
17025;BME280;8629;42.496;25.620;2024-03-22T12:24:23;96556.84;;;16.85;18.79
17025;BME280;8629;42.496;25.620;2024-03-22T12:26:50;96548.78;;;16.85;19.29
17025;BME280;8629;42.496;25.620;2024-03-22T12:29:16;96567.06;;;15.95;18.18
17025;BME280;8629;42.496;25.620;2024-03-22T12:31:45;96571.84;;;16.27;20.41
17025;BME280;8629;42.496;25.620;2024-03-22T12:34:11;96532.59;;;16.05;20.63
17025;BME280;8629;42.496;25.620;2024-03-22T12:36:38;96555.56;;;16.62;19.96
17025;BME280;8629;42.496;25.620;2024-03-22T12:39:04;96555.63;;;15.68;18.86
17025;BME280;8629;42.496;25.620;2024-03-22T12:41:32;96540.81;;;14.18;21.48
17025;BME280;8629;42.496;25.620;2024-03-22T12:43:58;96551.53;;;15.10;20.59
17025;BME280;8629;42.496;25.620;2024-03-22T12:46:26;96548.72;;;15.41;21.70
17025;BME280;8629;42.496;25.620;2024-03-22T12:48:54;96520.63;;;14.78;20.19
17025;BME280;8629;42.496;25.620;2024-03-22T12:51:21;96560.50;;;15.49;21.31
17025;BME280;8629;42.496;25.620;2024-03-22T12:53:46;96547.66;;;15.89;21.10
17025;BME280;8629;42.496;25.620;2024-03-22T12:56:13;96518.28;;;15.93;21.12
17025;BME280;8629;42.496;25.620;2024-03-22T12:58:39;96542.56;;;16.05;20.34
17025;BME280;8629;42.496;25.620;2024-03-22T13:01:06;96547.44;;;16.11;19.72
17025;BME280;8629;42.496;25.620;2024-03-22T13:03:33;96544.50;;;16.25;20.37
17025;BME280;8629;42.496;25.620;2024-03-22T13:06:02;96543.13;;;16.19;21.44
17025;BME280;8629;42.496;25.620;2024-03-22T13:08:31;96546.06;;;15.97;21.80
17025;BME280;8629;42.496;25.620;2024-03-22T13:10:57;96540.56;;;16.31;21.83
17025;BME280;8629;42.496;25.620;2024-03-22T13:13:23;96525.66;;;16.63;21.12
17025;BME280;8629;42.496;25.620;2024-03-22T13:15:50;96516.66;;;16.89;21.70
17025;BME280;8629;42.496;25.620;2024-03-22T13:18:16;96489.59;;;16.44;19.96
17025;BME280;8629;42.496;25.620;2024-03-22T13:20:43;96474.13;;;15.81;20.75
17025;BME280;8629;42.496;25.620;2024-03-22T13:23:10;96495.00;;;15.67;20.29
17025;BME280;8629;42.496;25.620;2024-03-22T13:25:37;96526.50;;;16.26;20.92
17025;BME280;8629;42.496;25.620;2024-03-22T13:28:04;96522.91;;;16.81;21.15
17025;BME280;8629;42.496;25.620;2024-03-22T13:30:31;96482.59;;;16.72;21.82
17025;BME280;8629;42.496;25.620;2024-03-22T13:35:28;96526.72;;;15.74;21.78
17025;BME280;8629;42.496;25.620;2024-03-22T13:37:54;96515.22;;;16.11;21.65
17025;BME280;8629;42.496;25.620;2024-03-22T13:40:22;96504.44;;;16.50;22.09
17025;BME280;8629;42.496;25.620;2024-03-22T13:42:52;96496.94;;;16.85;21.32
17025;BME280;8629;42.496;25.620;2024-03-22T13:45:18;96490.44;;;16.35;21.67
17025;BME280;8629;42.496;25.620;2024-03-22T13:47:45;96499.19;;;16.53;21.18
17025;BME280;8629;42.496;25.620;2024-03-22T13:50:11;96516.38;;;17.03;21.76
17025;BME280;8629;42.496;25.620;2024-03-22T13:52:38;96500.63;;;16.72;19.85
17025;BME280;8629;42.496;25.620;2024-03-22T13:55:04;96498.47;;;16.65;21.51
17025;BME280;8629;42.496;25.620;2024-03-22T13:57:36;96434.25;;;16.22;22.14
17025;BME280;8629;42.496;25.620;2024-03-22T14:00:02;96479.38;;;16.07;21.88
17025;BME280;8629;42.496;25.620;2024-03-22T14:02:32;96521.81;;;16.14;22.88
17025;BME280;8629;42.496;25.620;2024-03-22T14:04:58;96491.53;;;16.05;22.22
17025;BME280;8629;42.496;25.620;2024-03-22T14:07:25;96510.72;;;16.24;22.28
17025;BME280;8629;42.496;25.620;2024-03-22T14:09:52;96500.06;;;16.36;22.79
17025;BME280;8629;42.496;25.620;2024-03-22T14:12:19;96498.72;;;16.51;22.48
17025;BME280;8629;42.496;25.620;2024-03-22T14:14:46;96489.72;;;16.77;23.74
17025;BME280;8629;42.496;25.620;2024-03-22T14:17:14;96469.72;;;16.86;21.64